createdAt,value
2022-11-27T00:01:38.435Z,10.40
2022-11-27T00:06:39.843Z,10.40
2022-11-27T00:11:39.352Z,10.40
2022-11-27T00:16:37.513Z,10.30
2022-11-27T00:21:38.690Z,10.30
2022-11-27T00:26:38.281Z,10.20
2022-11-27T00:31:37.904Z,10.20
2022-11-27T00:36:38.397Z,10.20
2022-11-27T00:41:37.019Z,10.10
2022-11-27T00:46:36.519Z,10.10
2022-11-27T00:51:34.956Z,10.10
2022-11-27T00:56:36.752Z,10.00
2022-11-27T01:01:40.919Z,10.00
2022-11-27T01:06:39.439Z,9.90
2022-11-27T01:11:39.081Z,9.90
2022-11-27T01:16:42.620Z,9.80
2022-11-27T01:21:42.091Z,9.80
2022-11-27T01:26:41.980Z,9.80
2022-11-27T01:31:41.566Z,9.70
2022-11-27T01:36:39.809Z,9.70
2022-11-27T01:41:41.034Z,9.60
2022-11-27T01:53:16.488Z,9.60
2022-11-27T01:58:21.088Z,9.50
2022-11-27T02:03:19.617Z,9.50
2022-11-27T02:08:18.560Z,9.40
2022-11-27T02:13:26.812Z,9.40
2022-11-27T02:18:30.428Z,9.40
2022-11-27T02:23:54.849Z,9.40
2022-11-27T02:29:02.495Z,9.30
2022-11-27T02:34:07.763Z,9.20
2022-11-27T02:39:12.061Z,9.30
2022-11-27T02:44:12.318Z,9.20
2022-11-27T02:49:17.551Z,9.20
2022-11-27T02:55:15.339Z,9.10
2022-11-27T03:00:16.304Z,9.10
2022-11-27T03:05:19.251Z,9.00
2022-11-27T03:10:20.675Z,9.00
2022-11-27T03:15:22.174Z,8.90
2022-11-27T03:20:24.434Z,8.90
2022-11-27T03:25:23.267Z,8.80
2022-11-27T03:30:23.071Z,8.80
2022-11-27T03:35:24.350Z,8.80
2022-11-27T03:40:28.128Z,8.80
2022-11-27T03:45:35.214Z,8.70
2022-11-27T03:50:44.828Z,8.70
2022-11-27T04:02:42.511Z,8.60
2022-11-27T04:07:40.867Z,8.60
2022-11-27T04:12:39.715Z,8.50
2022-11-27T04:17:39.311Z,8.80
2022-11-27T04:22:37.518Z,8.50
2022-11-27T04:27:35.675Z,8.50
2022-11-27T04:32:33.848Z,8.40
2022-11-27T04:37:33.633Z,8.30
2022-11-27T04:42:31.870Z,8.50
2022-11-27T04:47:30.255Z,8.20
2022-11-27T04:52:28.475Z,8.20
2022-11-27T04:57:27.992Z,8.20
2022-11-27T05:02:26.251Z,8.20
2022-11-27T05:07:24.587Z,8.20
2022-11-27T05:12:22.788Z,8.20
2022-11-27T05:17:22.327Z,8.30
2022-11-27T05:22:20.576Z,8.20
2022-11-27T05:27:18.759Z,8.10
2022-11-27T05:32:16.963Z,8.10
2022-11-27T05:37:19.504Z,8.10
2022-11-27T05:42:18.214Z,8.10
2022-11-27T05:47:16.426Z,8.00
2022-11-27T05:52:16.005Z,8.00
2022-11-27T05:57:14.181Z,8.00
2022-11-27T06:02:18.106Z,7.90
2022-11-27T06:07:20.700Z,7.90
2022-11-27T06:12:18.932Z,7.90
2022-11-27T06:17:17.121Z,7.90
2022-11-27T06:22:15.278Z,7.90
2022-11-27T06:27:14.788Z,7.90
2022-11-27T06:32:13.087Z,7.80
2022-11-27T06:37:13.304Z,7.70
2022-11-27T06:42:12.908Z,7.70
2022-11-27T06:47:12.449Z,8.00
2022-11-27T06:52:10.645Z,7.70
2022-11-27T06:57:08.910Z,7.70
2022-11-27T07:02:07.553Z,7.60
2022-11-27T07:07:07.133Z,7.60
2022-11-27T07:12:06.382Z,7.70
2022-11-27T07:17:04.560Z,7.60
2022-11-27T07:22:02.987Z,7.50
2022-11-27T07:27:02.569Z,7.50
2022-11-27T07:32:00.823Z,7.50
2022-11-27T07:36:59.244Z,7.70
2022-11-27T07:42:00.026Z,7.60
2022-11-27T07:47:02.401Z,7.50
2022-11-27T07:52:00.566Z,7.50
2022-11-27T07:56:58.810Z,7.50
2022-11-27T08:01:56.974Z,7.50
2022-11-27T08:06:57.479Z,7.50
2022-11-27T08:11:55.678Z,7.60
2022-11-27T08:16:53.976Z,7.60
2022-11-27T08:21:52.318Z,7.60
2022-11-27T08:26:52.182Z,7.60
2022-11-27T08:31:50.448Z,7.60
2022-11-27T08:36:48.648Z,7.70
2022-11-27T08:41:46.872Z,7.60
2022-11-27T08:46:46.398Z,7.70
2022-11-27T08:51:44.788Z,7.90
2022-11-27T08:56:43.066Z,7.80
2022-11-27T09:01:41.338Z,7.90
2022-11-27T09:06:42.812Z,8.30
2022-11-27T09:11:40.970Z,8.40
2022-11-27T09:16:39.231Z,8.30
2022-11-27T09:21:38.818Z,8.30
2022-11-27T09:26:38.347Z,8.30
2022-11-27T09:31:36.588Z,8.40
2022-11-27T09:36:34.775Z,8.50
2022-11-27T09:41:45.977Z,8.60
2022-11-27T09:46:44.821Z,8.60
2022-11-27T09:51:49.167Z,8.70
2022-11-27T09:56:52.018Z,8.70
2022-11-27T10:01:51.222Z,8.80
2022-11-27T10:07:07.031Z,8.80
2022-11-27T10:12:17.854Z,8.80
2022-11-27T10:17:20.465Z,8.80
2022-11-27T10:22:24.343Z,8.90
2022-11-27T10:27:28.861Z,9.00
2022-11-27T10:37:51.075Z,9.10
2022-11-27T10:42:55.996Z,9.10
2022-11-27T10:47:54.276Z,9.20
2022-11-27T10:52:57.086Z,9.30
2022-11-27T10:58:09.792Z,9.30
2022-11-27T11:03:08.363Z,9.40
2022-11-27T11:08:15.299Z,9.40
2022-11-27T11:13:20.365Z,9.50
2022-11-27T11:18:19.423Z,9.50
2022-11-27T11:23:40.032Z,9.70
2022-11-27T11:28:48.135Z,9.60
2022-11-27T11:33:53.779Z,9.60
2022-11-27T11:38:52.945Z,9.60
2022-11-27T11:43:58.547Z,9.60
2022-11-27T11:49:03.050Z,9.70
2022-11-27T11:54:13.311Z,9.70
2022-11-27T11:59:22.691Z,9.80
2022-11-27T12:04:50.258Z,9.90
2022-11-27T12:09:58.399Z,9.90
2022-11-27T12:15:03.855Z,9.80
2022-11-27T12:20:22.585Z,9.90
2022-11-27T12:25:29.695Z,9.90
2022-11-27T12:30:40.440Z,9.90
2022-11-27T12:35:45.070Z,9.90
2022-11-27T12:41:12.080Z,9.90
2022-11-27T12:46:17.675Z,10.00
2022-11-27T12:51:23.182Z,10.00
2022-11-27T12:56:25.934Z,10.00
2022-11-27T13:01:28.891Z,10.00
2022-11-27T13:06:31.349Z,10.00
2022-11-27T13:11:33.692Z,10.00
2022-11-27T13:16:38.294Z,10.00
2022-11-27T13:21:38.712Z,10.10
2022-11-27T13:26:42.601Z,10.10
2022-11-27T13:31:45.789Z,10.10
2022-11-27T13:36:46.098Z,10.10
2022-11-27T13:41:44.614Z,10.00
2022-11-27T13:46:49.193Z,10.00
2022-11-27T13:51:47.421Z,10.00
2022-11-27T13:56:46.085Z,10.00
2022-11-27T14:01:58.083Z,10.00
2022-11-27T14:07:01.066Z,10.00
2022-11-27T14:11:59.458Z,10.10
2022-11-27T14:17:03.410Z,10.00
2022-11-27T14:22:02.342Z,9.90
2022-11-27T14:27:00.513Z,9.90
2022-11-27T14:32:01.144Z,9.90
2022-11-27T14:37:00.205Z,9.80
2022-11-27T14:42:00.259Z,9.80
2022-11-27T14:47:03.429Z,9.80
2022-11-27T14:52:05.602Z,9.70
2022-11-27T14:57:05.153Z,9.70
2022-11-27T15:02:18.046Z,9.70
2022-11-27T15:07:18.946Z,9.70
2022-11-27T15:12:21.602Z,9.70
2022-11-27T15:17:26.654Z,9.70
2022-11-27T15:22:25.357Z,9.70
2022-11-27T15:27:23.577Z,9.60
2022-11-27T15:32:25.256Z,9.60
2022-11-27T15:37:25.762Z,9.60
2022-11-27T15:42:24.710Z,9.60
2022-11-27T15:47:28.023Z,9.60
2022-11-27T15:52:27.246Z,9.50
2022-11-27T15:57:26.349Z,9.40
2022-11-27T16:02:28.391Z,9.40
2022-11-27T16:07:26.635Z,9.40
2022-11-27T16:12:24.954Z,9.40
2022-11-27T16:17:23.158Z,9.40
2022-11-27T16:22:22.996Z,9.40
2022-11-27T16:27:21.224Z,9.40
2022-11-27T16:32:19.412Z,9.40
2022-11-27T16:37:18.655Z,9.40
2022-11-27T16:42:18.303Z,9.30
2022-11-27T16:47:16.990Z,9.30
2022-11-27T16:52:15.824Z,9.30
2022-11-27T16:57:14.226Z,9.30
2022-11-27T17:02:14.397Z,9.30
2022-11-27T17:07:12.719Z,9.30
2022-11-27T17:12:10.950Z,9.30
2022-11-27T17:17:09.209Z,9.20
2022-11-27T17:22:08.892Z,9.20
2022-11-27T17:27:08.598Z,9.20
2022-11-27T17:32:09.931Z,9.20
2022-11-27T17:37:09.817Z,9.20
2022-11-27T17:42:13.380Z,9.20
2022-11-27T17:47:13.469Z,9.20
2022-11-27T17:59:01.089Z,9.20
2022-11-27T18:04:02.043Z,9.40
2022-11-27T18:09:01.900Z,9.20
2022-11-27T18:20:57.125Z,9.20
2022-11-27T18:27:12.081Z,9.20
2022-11-27T18:32:11.288Z,9.20
2022-11-27T18:44:06.437Z,9.20
2022-11-27T18:49:04.990Z,9.10
2022-11-27T18:54:03.455Z,9.10
2022-11-27T18:59:02.999Z,9.10
2022-11-27T19:04:03.292Z,9.10
2022-11-27T19:09:01.575Z,9.10
2022-11-27T19:14:00.176Z,9.20
2022-11-27T19:18:59.493Z,9.10
2022-11-27T19:24:01.138Z,9.10
2022-11-27T19:29:01.506Z,9.10
2022-11-27T19:34:01.414Z,9.20
2022-11-27T19:39:03.957Z,9.20
2022-11-27T19:44:02.217Z,9.20
2022-11-27T19:49:02.409Z,9.20
2022-11-27T19:54:07.062Z,9.20
2022-11-27T19:59:10.311Z,9.20
2022-11-27T20:04:11.458Z,9.20
2022-11-27T20:09:13.997Z,9.30
2022-11-27T20:14:12.761Z,9.30
2022-11-27T20:19:11.022Z,9.30
2022-11-27T20:24:15.375Z,9.30
2022-11-27T20:29:14.612Z,9.30
2022-11-27T20:34:19.713Z,9.80
2022-11-27T20:39:21.954Z,9.60
2022-11-27T20:44:22.344Z,9.50
2022-11-27T20:49:21.981Z,9.40
2022-11-27T20:54:21.618Z,9.40
2022-11-27T20:59:22.123Z,9.40
2022-11-27T21:04:24.406Z,9.40
2022-11-27T21:09:25.644Z,9.40
2022-11-27T21:14:23.869Z,9.40
2022-11-27T21:19:26.713Z,9.40
2022-11-27T21:24:28.702Z,9.40
2022-11-27T21:29:28.489Z,9.50
2022-11-27T21:34:27.158Z,9.40
2022-11-27T21:39:27.555Z,9.40
2022-11-27T21:44:26.505Z,9.40
2022-11-27T21:49:43.028Z,9.40
2022-11-27T21:54:42.960Z,9.40
2022-11-27T21:59:43.147Z,9.40
2022-11-27T22:04:41.837Z,9.40
2022-11-27T22:09:40.178Z,9.30
2022-11-27T22:14:40.021Z,9.30
2022-11-27T22:19:42.328Z,9.30
2022-11-27T22:24:40.751Z,9.30
2022-11-27T22:29:40.498Z,9.20
2022-11-27T22:34:40.084Z,9.20
2022-11-27T22:39:38.508Z,9.10
2022-11-27T22:44:36.814Z,9.10
2022-11-27T22:49:36.829Z,9.10
2022-11-27T22:54:35.074Z,9.20
2022-11-27T23:00:05.375Z,9.30
2022-11-27T23:05:05.781Z,9.10
2022-11-27T23:10:05.048Z,9.30
2022-11-27T23:15:03.261Z,9.40
2022-11-27T23:20:01.410Z,9.30
2022-11-27T23:25:01.020Z,9.30
2022-11-27T23:29:59.188Z,9.20
2022-11-27T23:34:57.439Z,9.10
2022-11-27T23:39:55.649Z,9.20
2022-11-27T23:44:55.190Z,9.30
2022-11-27T23:49:53.403Z,9.30
2022-11-27T23:54:51.650Z,9.30
2022-11-27T23:59:49.892Z,9.30
